createdAt,value
2017-01-22T00:00:04.746Z,0
2017-01-22T00:01:13.431Z,0
2017-01-22T00:02:22.113Z,0
2017-01-22T00:03:30.801Z,0
2017-01-22T00:04:39.486Z,0
2017-01-22T00:05:48.179Z,0
2017-01-22T00:06:56.863Z,0
2017-01-22T00:08:05.555Z,0
2017-01-22T00:09:14.240Z,0
2017-01-22T00:10:22.924Z,0
2017-01-22T00:11:31.608Z,0
2017-01-22T00:12:40.297Z,0
2017-01-22T00:13:48.981Z,0
2017-01-22T00:14:57.671Z,0
2017-01-22T00:16:06.364Z,0
2017-01-22T00:17:15.044Z,0
2017-01-22T00:18:23.737Z,0
2017-01-22T00:19:32.421Z,0
2017-01-22T00:20:41.109Z,0
2017-01-22T00:21:49.801Z,0
2017-01-22T00:22:58.538Z,0
2017-01-22T00:24:07.223Z,0
2017-01-22T00:25:15.908Z,0
2017-01-22T00:26:24.593Z,0
2017-01-22T00:27:33.282Z,0
2017-01-22T00:28:41.967Z,0
2017-01-22T00:29:50.648Z,0
2017-01-22T00:30:59.330Z,0
2017-01-22T00:32:08.023Z,0
2017-01-22T00:33:16.711Z,0
2017-01-22T00:34:25.399Z,0
2017-01-22T00:35:34.087Z,0
2017-01-22T00:36:42.794Z,0
2017-01-22T00:37:51.479Z,0
2017-01-22T00:39:00.162Z,0
2017-01-22T00:40:09.253Z,0
2017-01-22T00:41:17.933Z,0
2017-01-22T00:42:26.657Z,0
2017-01-22T00:43:35.345Z,0
2017-01-22T00:44:44.032Z,0
2017-01-22T00:45:52.720Z,0
2017-01-22T00:47:01.405Z,0
2017-01-22T00:48:10.086Z,0
2017-01-22T00:49:18.768Z,0
2017-01-22T00:50:27.450Z,0
2017-01-22T00:51:36.140Z,0
2017-01-22T00:52:44.828Z,0
2017-01-22T00:53:53.515Z,0
2017-01-22T00:55:02.207Z,0
2017-01-22T00:56:11.290Z,0
2017-01-22T00:57:19.979Z,0
2017-01-22T00:58:28.662Z,0
2017-01-22T00:59:37.348Z,0
2017-01-22T01:00:46.037Z,0
2017-01-22T01:01:54.725Z,0
2017-01-22T01:03:03.410Z,0
2017-01-22T01:04:12.097Z,0
2017-01-22T01:05:20.780Z,0
2017-01-22T01:06:29.469Z,0
2017-01-22T01:07:38.153Z,0
2017-01-22T01:08:46.841Z,0
2017-01-22T01:09:55.531Z,0
2017-01-22T01:11:04.210Z,0
2017-01-22T01:12:12.898Z,0
2017-01-22T01:13:21.583Z,0
2017-01-22T01:14:30.264Z,0
2017-01-22T01:15:38.952Z,0
2017-01-22T01:16:47.640Z,0
2017-01-22T01:17:56.324Z,0
2017-01-22T01:19:05.005Z,0
2017-01-22T01:20:13.686Z,0
2017-01-22T01:21:22.370Z,0
2017-01-22T01:22:31.049Z,0
2017-01-22T01:23:39.735Z,0
2017-01-22T01:24:48.416Z,0
2017-01-22T01:25:57.103Z,0
2017-01-22T01:27:05.789Z,0
2017-01-22T01:28:14.474Z,0
2017-01-22T01:29:23.163Z,0
2017-01-22T01:30:31.851Z,0
2017-01-22T01:31:40.534Z,0
2017-01-22T01:32:49.222Z,0
2017-01-22T01:33:57.909Z,0
2017-01-22T01:35:06.599Z,0
2017-01-22T01:36:15.281Z,0
2017-01-22T01:37:23.966Z,0
2017-01-22T01:38:33.047Z,0
2017-01-22T01:39:41.728Z,0
2017-01-22T01:40:50.411Z,0
2017-01-22T01:41:59.097Z,0
2017-01-22T01:43:07.783Z,0
2017-01-22T01:44:16.466Z,0
2017-01-22T01:45:25.153Z,0
2017-01-22T01:46:33.840Z,0
2017-01-22T01:47:42.538Z,0
2017-01-22T01:48:51.226Z,0
2017-01-22T01:49:59.906Z,0
2017-01-22T01:51:08.589Z,0
2017-01-22T01:52:17.277Z,0
2017-01-22T01:53:25.958Z,0
2017-01-22T01:54:34.641Z,0
2017-01-22T01:55:43.325Z,0
2017-01-22T01:56:52.013Z,0
2017-01-22T01:58:00.698Z,0
2017-01-22T01:59:09.386Z,0
2017-01-22T02:00:18.073Z,0
2017-01-22T02:01:26.782Z,0
2017-01-22T02:02:35.464Z,0
2017-01-22T02:03:44.149Z,0
2017-01-22T02:04:52.834Z,0
2017-01-22T02:06:01.515Z,0
2017-01-22T02:07:10.205Z,0
2017-01-22T02:08:18.886Z,0
2017-01-22T02:09:27.565Z,0
2017-01-22T02:10:36.249Z,0
2017-01-22T02:11:44.956Z,0
2017-01-22T02:12:53.634Z,0
2017-01-22T02:14:02.324Z,0
2017-01-22T02:15:11.005Z,0
2017-01-22T02:16:19.688Z,0
2017-01-22T02:17:28.372Z,0
2017-01-22T02:18:37.072Z,0
2017-01-22T02:19:45.767Z,0
2017-01-22T02:20:54.451Z,0
2017-01-22T02:22:03.136Z,0
2017-01-22T02:23:11.830Z,0
2017-01-22T02:24:20.536Z,0
2017-01-22T02:25:29.221Z,0
2017-01-22T02:26:37.908Z,0
2017-01-22T02:27:46.595Z,0
2017-01-22T02:28:55.274Z,0
2017-01-22T02:30:04.353Z,0
2017-01-22T02:31:13.043Z,0
2017-01-22T02:32:21.728Z,0
2017-01-22T02:33:30.410Z,0
2017-01-22T02:34:39.106Z,0
2017-01-22T02:35:47.793Z,0
2017-01-22T02:36:56.485Z,0
2017-01-22T02:38:05.171Z,0
2017-01-22T02:39:13.857Z,0
2017-01-22T02:40:22.552Z,0
2017-01-22T02:41:31.240Z,0
2017-01-22T02:42:39.924Z,0
2017-01-22T02:43:48.607Z,0
2017-01-22T02:44:57.292Z,0
2017-01-22T02:46:05.983Z,0
2017-01-22T02:47:14.672Z,0
2017-01-22T02:48:23.362Z,0
2017-01-22T02:49:32.047Z,0
2017-01-22T02:50:40.729Z,0
2017-01-22T02:51:49.416Z,0
2017-01-22T02:52:58.098Z,0
2017-01-22T02:54:06.791Z,0
2017-01-22T02:55:15.479Z,0
2017-01-22T02:56:24.560Z,0
2017-01-22T02:57:33.244Z,0
2017-01-22T02:58:41.928Z,0
2017-01-22T02:59:50.613Z,0
2017-01-22T03:00:59.304Z,0
2017-01-22T03:02:07.995Z,0
2017-01-22T03:03:19.051Z,0
2017-01-22T03:04:27.733Z,0
2017-01-22T03:05:36.426Z,0
2017-01-22T03:06:45.114Z,0
2017-01-22T03:07:53.826Z,0
2017-01-22T03:09:02.858Z,0
2017-01-22T03:10:11.543Z,0
2017-01-22T03:11:20.235Z,0
2017-01-22T03:12:28.923Z,0
2017-01-22T03:13:37.610Z,0
2017-01-22T03:14:46.293Z,0
2017-01-22T03:15:54.982Z,0
2017-01-22T03:17:03.670Z,0
2017-01-22T03:18:12.359Z,0
2017-01-22T03:19:21.043Z,0
2017-01-22T03:20:29.780Z,0
2017-01-22T03:21:38.468Z,0
2017-01-22T03:22:47.155Z,0
2017-01-22T03:23:55.838Z,0
2017-01-22T03:25:04.553Z,0
2017-01-22T03:26:13.239Z,0
2017-01-22T03:27:21.922Z,0
2017-01-22T03:28:30.607Z,0
2017-01-22T03:29:39.291Z,0
2017-01-22T03:30:47.977Z,0
2017-01-22T03:31:56.660Z,0
2017-01-22T03:33:05.343Z,0
2017-01-22T03:34:14.034Z,0
2017-01-22T03:35:22.715Z,0
2017-01-22T03:36:31.400Z,0
2017-01-22T03:37:40.084Z,0
2017-01-22T03:38:48.772Z,0
2017-01-22T03:39:57.495Z,0
2017-01-22T03:41:06.181Z,0
2017-01-22T03:42:14.866Z,0
2017-01-22T03:43:23.556Z,0
2017-01-22T03:44:32.270Z,0
2017-01-22T03:45:40.954Z,0
2017-01-22T03:46:49.646Z,0
2017-01-22T03:47:58.329Z,0
2017-01-22T03:49:07.014Z,0
2017-01-22T03:50:15.696Z,0
2017-01-22T03:51:24.375Z,0
2017-01-22T03:52:33.059Z,0
2017-01-22T03:53:41.744Z,0
2017-01-22T03:54:50.426Z,0
2017-01-22T03:55:59.110Z,0
2017-01-22T03:57:07.791Z,0
2017-01-22T03:58:16.475Z,0
2017-01-22T03:59:25.160Z,0
2017-01-22T04:00:33.846Z,0
2017-01-22T04:01:42.532Z,0
2017-01-22T04:02:51.222Z,0
2017-01-22T04:03:59.904Z,0
2017-01-22T04:05:08.595Z,0
2017-01-22T04:06:17.280Z,0
2017-01-22T04:07:25.964Z,0
2017-01-22T04:08:34.647Z,0
2017-01-22T04:09:43.725Z,0
2017-01-22T04:10:52.412Z,0
2017-01-22T04:12:01.099Z,0
2017-01-22T04:13:09.786Z,0
2017-01-22T04:14:18.469Z,0
2017-01-22T04:15:27.151Z,0
2017-01-22T04:16:35.837Z,0
2017-01-22T04:17:44.525Z,0
2017-01-22T04:18:53.210Z,0
2017-01-22T04:20:01.894Z,0
2017-01-22T04:21:10.584Z,0
2017-01-22T04:22:19.268Z,0
2017-01-22T04:23:27.951Z,0
2017-01-22T04:24:36.633Z,0
2017-01-22T04:25:45.349Z,0
2017-01-22T04:26:54.034Z,0
2017-01-22T04:28:02.722Z,0
2017-01-22T04:29:11.410Z,0
2017-01-22T04:30:20.095Z,0
2017-01-22T04:31:28.785Z,0
2017-01-22T04:32:37.522Z,0
2017-01-22T04:33:46.204Z,0
2017-01-22T04:34:54.887Z,0
2017-01-22T04:36:03.569Z,0
2017-01-22T04:37:12.254Z,0
2017-01-22T04:38:20.938Z,0
2017-01-22T04:39:29.654Z,0
2017-01-22T04:40:39.436Z,0
2017-01-22T04:41:48.125Z,0
2017-01-22T04:42:56.809Z,0
2017-01-22T04:44:05.518Z,0
2017-01-22T04:45:14.206Z,0
2017-01-22T04:46:22.945Z,0
2017-01-22T04:47:31.628Z,0
2017-01-22T04:48:40.320Z,0
2017-01-22T04:49:49.011Z,0
2017-01-22T04:50:57.695Z,0
2017-01-22T04:52:06.450Z,0
2017-01-22T04:53:15.134Z,0
2017-01-22T04:54:23.817Z,0
2017-01-22T04:55:32.507Z,0
2017-01-22T04:56:41.195Z,0
2017-01-22T04:57:49.980Z,0
2017-01-22T04:58:58.657Z,0
2017-01-22T05:00:07.345Z,0
2017-01-22T05:01:16.030Z,0
2017-01-22T05:02:24.739Z,0
2017-01-22T05:03:33.473Z,0
2017-01-22T05:04:42.161Z,0
2017-01-22T05:05:50.849Z,0
2017-01-22T05:06:59.535Z,0
2017-01-22T05:08:08.252Z,0
2017-01-22T05:09:16.990Z,0
2017-01-22T05:10:25.670Z,0
2017-01-22T05:11:34.357Z,0
2017-01-22T05:12:43.045Z,0
2017-01-22T05:13:51.724Z,0
2017-01-22T05:15:00.468Z,0
2017-01-22T05:16:09.152Z,0
2017-01-22T05:17:17.847Z,0
2017-01-22T05:18:26.531Z,0
2017-01-22T05:19:35.214Z,0
2017-01-22T05:20:43.945Z,0
2017-01-22T05:21:52.630Z,0
2017-01-22T05:23:01.306Z,0
2017-01-22T05:24:09.994Z,0
2017-01-22T05:25:18.680Z,0
2017-01-22T05:26:27.416Z,0
2017-01-22T05:27:36.105Z,0
2017-01-22T05:28:44.790Z,0
2017-01-22T05:29:53.471Z,0
2017-01-22T05:31:02.154Z,0
2017-01-22T05:32:10.887Z,0
2017-01-22T05:33:19.573Z,0
2017-01-22T05:34:28.259Z,0
2017-01-22T05:35:36.951Z,0
2017-01-22T05:36:45.655Z,0
2017-01-22T05:37:54.388Z,0
2017-01-22T05:39:03.076Z,0
2017-01-22T05:40:11.761Z,0
2017-01-22T05:41:20.447Z,0
2017-01-22T05:42:29.127Z,0
2017-01-22T05:43:37.915Z,0
2017-01-22T05:44:46.605Z,0
2017-01-22T05:45:55.312Z,0
2017-01-22T05:47:03.994Z,0
2017-01-22T05:48:12.677Z,0
2017-01-22T05:49:21.409Z,0
2017-01-22T05:50:30.490Z,0
2017-01-22T05:51:39.181Z,0
2017-01-22T05:52:47.864Z,0
2017-01-22T05:53:56.554Z,0
2017-01-22T05:55:05.687Z,0
2017-01-22T05:56:14.374Z,0
2017-01-22T05:57:23.060Z,0
2017-01-22T05:58:31.748Z,0
2017-01-22T05:59:40.440Z,0
2017-01-22T06:00:49.180Z,0
2017-01-22T06:01:57.866Z,0
2017-01-22T06:03:06.556Z,0
2017-01-22T06:04:15.270Z,0
2017-01-22T06:05:23.956Z,0
2017-01-22T06:06:32.697Z,0
2017-01-22T06:07:41.385Z,0
2017-01-22T06:08:50.074Z,0
2017-01-22T06:09:58.761Z,0
2017-01-22T06:11:07.449Z,0
2017-01-22T06:12:19.969Z,0
2017-01-22T06:13:28.655Z,0
2017-01-22T06:14:37.340Z,0
2017-01-22T06:15:46.023Z,0
2017-01-22T06:16:54.709Z,0
2017-01-22T06:18:03.744Z,0
2017-01-22T06:19:12.435Z,0
2017-01-22T06:20:21.121Z,0
2017-01-22T06:21:29.811Z,0
2017-01-22T06:22:38.525Z,0
2017-01-22T06:23:48.868Z,0
2017-01-22T06:24:57.556Z,0
2017-01-22T06:26:06.269Z,0
2017-01-22T06:27:14.956Z,0
2017-01-22T06:28:23.636Z,0
2017-01-22T06:29:32.357Z,0
2017-01-22T06:30:41.042Z,0
2017-01-22T06:31:49.729Z,0
2017-01-22T06:32:58.412Z,0
2017-01-22T06:34:07.098Z,0
2017-01-22T06:35:15.787Z,0
2017-01-22T06:36:24.471Z,0
2017-01-22T06:37:33.159Z,0
2017-01-22T06:38:41.875Z,0
2017-01-22T06:39:50.563Z,0
2017-01-22T06:40:59.254Z,0
2017-01-22T06:42:07.938Z,0
2017-01-22T06:43:16.623Z,0
2017-01-22T06:44:25.313Z,0
2017-01-22T06:45:33.999Z,0
2017-01-22T06:46:42.708Z,0
2017-01-22T06:47:51.395Z,0
2017-01-22T06:49:00.079Z,0
2017-01-22T06:50:08.768Z,0
2017-01-22T06:51:17.452Z,0
2017-01-22T06:52:26.145Z,0
2017-01-22T06:53:34.830Z,0
2017-01-22T06:54:43.520Z,0
2017-01-22T06:55:52.204Z,0
2017-01-22T06:57:00.885Z,0
2017-01-22T06:58:09.580Z,0
2017-01-22T06:59:18.269Z,0
2017-01-22T07:00:27.351Z,0
2017-01-22T07:01:36.043Z,0
2017-01-22T07:02:44.726Z,0
2017-01-22T07:03:53.407Z,0
2017-01-22T07:05:02.094Z,0
2017-01-22T07:06:10.778Z,0
2017-01-22T07:07:19.465Z,0
2017-01-22T07:08:28.147Z,0
2017-01-22T07:09:36.832Z,0
2017-01-22T07:10:45.516Z,0
2017-01-22T07:11:54.202Z,4
2017-01-22T07:13:02.888Z,4
2017-01-22T07:14:11.579Z,0
2017-01-22T07:15:20.263Z,0
2017-01-22T07:16:28.965Z,4
2017-01-22T07:17:37.654Z,4
2017-01-22T07:18:46.337Z,4
2017-01-22T07:19:55.021Z,4
2017-01-22T07:21:03.702Z,4
2017-01-22T07:22:12.389Z,4
2017-01-22T07:23:21.072Z,4
2017-01-22T07:24:29.779Z,4
2017-01-22T07:25:38.463Z,8
2017-01-22T07:26:47.152Z,8
2017-01-22T07:27:55.841Z,12
2017-01-22T07:29:04.522Z,8
2017-01-22T07:30:13.203Z,12
2017-01-22T07:31:21.895Z,16
2017-01-22T07:32:30.592Z,20
2017-01-22T07:33:39.279Z,20
2017-01-22T07:34:47.970Z,24
2017-01-22T07:35:56.677Z,24
2017-01-22T07:37:05.382Z,24
2017-01-22T07:38:14.068Z,28
2017-01-22T07:39:23.154Z,28
2017-01-22T07:40:31.841Z,36
2017-01-22T07:41:40.525Z,40
2017-01-22T07:42:49.208Z,44
2017-01-22T07:43:57.912Z,48
2017-01-22T07:45:06.603Z,52
2017-01-22T07:46:15.282Z,56
2017-01-22T07:47:23.966Z,64
2017-01-22T07:48:32.649Z,68
2017-01-22T07:49:41.339Z,76
2017-01-22T07:50:50.020Z,80
2017-01-22T07:51:58.707Z,84
2017-01-22T07:53:07.395Z,92
2017-01-22T07:54:16.079Z,100
2017-01-22T07:55:24.762Z,108
2017-01-22T07:56:33.517Z,112
2017-01-22T07:57:42.201Z,124
2017-01-22T07:58:50.895Z,132
2017-01-22T07:59:59.580Z,140
2017-01-22T08:01:08.264Z,152
2017-01-22T08:02:16.951Z,160
2017-01-22T08:03:25.632Z,168
2017-01-22T08:04:34.348Z,176
2017-01-22T08:05:43.059Z,188
2017-01-22T08:06:51.749Z,200
2017-01-22T08:08:00.442Z,208
2017-01-22T08:09:09.133Z,220
2017-01-22T08:10:17.819Z,232
2017-01-22T08:11:26.504Z,244
2017-01-22T08:12:38.190Z,256
2017-01-22T08:13:46.878Z,276
2017-01-22T08:14:55.559Z,288
2017-01-22T08:16:04.245Z,300
2017-01-22T08:17:12.929Z,312
2017-01-22T08:18:21.964Z,336
2017-01-22T08:19:30.651Z,360
2017-01-22T08:20:39.337Z,380
2017-01-22T08:21:48.028Z,400
2017-01-22T08:22:56.711Z,420
2017-01-22T08:24:07.755Z,432
2017-01-22T08:25:16.442Z,444
2017-01-22T08:26:25.124Z,452
2017-01-22T08:27:33.805Z,464
2017-01-22T08:28:42.489Z,476
2017-01-22T08:29:51.527Z,504
2017-01-22T08:31:00.221Z,516
2017-01-22T08:32:08.906Z,532
2017-01-22T08:33:17.618Z,544
2017-01-22T08:34:26.305Z,552
2017-01-22T08:35:35.345Z,564
2017-01-22T08:36:44.029Z,580
2017-01-22T08:37:52.710Z,584
2017-01-22T08:39:01.801Z,592
2017-01-22T08:40:10.512Z,604
2017-01-22T08:41:19.550Z,616
2017-01-22T08:42:28.239Z,628
2017-01-22T08:43:36.931Z,648
2017-01-22T08:44:45.619Z,672
2017-01-22T08:45:54.308Z,680
2017-01-22T08:47:03.053Z,692
2017-01-22T08:48:11.734Z,700
2017-01-22T08:49:20.419Z,712
2017-01-22T08:50:29.103Z,736
2017-01-22T08:51:37.786Z,748
2017-01-22T08:52:46.519Z,768
2017-01-22T08:53:55.206Z,780
2017-01-22T08:55:03.894Z,808
2017-01-22T08:56:12.579Z,844
2017-01-22T08:57:21.260Z,900
2017-01-22T08:58:29.997Z,936
2017-01-22T08:59:39.080Z,892
2017-01-22T09:00:47.770Z,896
2017-01-22T09:01:56.453Z,944
2017-01-22T09:03:05.142Z,944
2017-01-22T09:04:13.877Z,948
2017-01-22T09:05:22.563Z,964
2017-01-22T09:06:31.252Z,988
2017-01-22T09:07:39.967Z,1020
2017-01-22T09:08:48.667Z,1076
2017-01-22T09:09:57.404Z,1132
2017-01-22T09:11:06.095Z,1164
2017-01-22T09:12:14.779Z,1248
2017-01-22T09:13:23.464Z,1332
2017-01-22T09:14:32.149Z,1420
2017-01-22T09:15:41.685Z,1508
2017-01-22T09:16:50.368Z,1528
2017-01-22T09:17:59.049Z,1508
2017-01-22T09:19:07.738Z,1480
2017-01-22T09:20:16.422Z,1524
2017-01-22T09:22:53.220Z,1616
2017-01-22T09:24:01.911Z,1656
2017-01-22T09:25:10.995Z,1716
2017-01-22T09:26:19.681Z,1724
2017-01-22T09:27:28.716Z,1768
2017-01-22T09:28:37.405Z,1780
2017-01-22T09:29:46.090Z,1848
2017-01-22T09:30:54.781Z,1872
2017-01-22T09:32:03.467Z,1940
2017-01-22T09:33:12.206Z,1900
2017-01-22T09:34:20.894Z,1888
2017-01-22T09:35:29.580Z,1816
2017-01-22T09:36:38.269Z,1740
2017-01-22T09:37:46.957Z,1788
2017-01-22T09:38:55.691Z,1840
2017-01-22T09:40:04.379Z,1816
2017-01-22T09:41:13.063Z,1776
2017-01-22T09:42:21.748Z,1772
2017-01-22T09:43:30.434Z,1680
2017-01-22T09:44:39.167Z,1624
2017-01-22T09:45:47.854Z,1620
2017-01-22T09:46:56.540Z,1620
2017-01-22T09:48:05.228Z,1676
2017-01-22T09:49:13.916Z,1708
2017-01-22T09:50:22.652Z,1736
2017-01-22T09:51:31.335Z,1748
2017-01-22T09:52:40.018Z,1736
2017-01-22T09:53:48.706Z,1768
2017-01-22T09:54:57.388Z,1768
2017-01-22T09:56:06.127Z,1860
2017-01-22T09:57:14.813Z,1772
2017-01-22T09:58:23.498Z,1796
2017-01-22T09:59:32.212Z,1864
2017-01-22T10:00:40.902Z,1756
2017-01-22T10:01:49.644Z,1776
2017-01-22T10:02:58.327Z,1784
2017-01-22T10:04:07.011Z,1752
2017-01-22T10:05:15.700Z,1704
2017-01-22T10:06:24.390Z,1704
2017-01-22T10:07:33.129Z,1764
2017-01-22T10:08:41.817Z,1816
2017-01-22T10:09:50.502Z,1844
2017-01-22T10:10:59.186Z,1808
2017-01-22T10:12:07.889Z,1824
2017-01-22T10:13:16.627Z,1824
2017-01-22T10:14:25.321Z,1824
2017-01-22T10:15:34.011Z,1952
2017-01-22T10:16:42.702Z,2032
2017-01-22T10:17:51.391Z,2120
2017-01-22T10:19:00.131Z,2180
2017-01-22T10:20:08.819Z,2276
2017-01-22T10:21:17.511Z,2280
2017-01-22T10:22:26.193Z,2240
2017-01-22T10:23:34.887Z,2396
2017-01-22T10:24:43.623Z,2604
2017-01-22T10:25:52.308Z,2796
2017-01-22T10:27:00.992Z,2728
2017-01-22T10:28:09.678Z,2840
2017-01-22T10:29:18.366Z,2876
2017-01-22T10:30:27.100Z,2996
2017-01-22T10:31:35.787Z,2836
2017-01-22T10:32:44.730Z,2760
2017-01-22T10:33:53.431Z,2820
2017-01-22T10:35:02.116Z,2912
2017-01-22T10:36:10.851Z,3016
2017-01-22T10:37:19.531Z,3020
2017-01-22T10:38:28.218Z,3036
2017-01-22T10:39:36.906Z,3008
2017-01-22T10:40:45.996Z,2976
2017-01-22T10:41:54.761Z,3012
2017-01-22T10:43:03.451Z,2924
2017-01-22T10:44:12.137Z,2824
2017-01-22T10:45:20.822Z,2748
2017-01-22T10:46:29.510Z,2720
2017-01-22T10:47:38.247Z,2768
2017-01-22T10:48:46.933Z,2788
2017-01-22T10:49:55.621Z,2728
2017-01-22T10:51:04.308Z,2620
2017-01-22T10:52:13.002Z,2468
2017-01-22T10:53:21.768Z,2464
2017-01-22T10:54:30.479Z,2388
2017-01-22T10:55:39.166Z,2280
2017-01-22T10:56:47.856Z,2176
2017-01-22T10:57:56.545Z,2124
2017-01-22T10:59:05.313Z,2060
2017-01-22T11:00:14.006Z,2128
2017-01-22T11:01:22.699Z,2284
2017-01-22T11:02:31.383Z,2340
2017-01-22T11:03:40.080Z,2324
2017-01-22T11:04:48.826Z,2360
2017-01-22T11:05:57.518Z,2344
2017-01-22T11:07:06.209Z,2384
2017-01-22T11:08:14.896Z,2412
2017-01-22T11:09:23.583Z,2428
2017-01-22T11:10:32.316Z,2512
2017-01-22T11:11:41.032Z,2440
2017-01-22T11:12:49.722Z,2484
2017-01-22T11:13:58.412Z,2512
2017-01-22T11:15:07.105Z,2504
2017-01-22T11:16:15.845Z,2464
2017-01-22T11:17:24.533Z,2456
2017-01-22T11:18:33.216Z,2512
2017-01-22T11:19:41.904Z,2552
2017-01-22T11:20:50.594Z,2536
2017-01-22T11:21:59.355Z,2432
2017-01-22T11:23:08.055Z,2360
2017-01-22T11:24:16.740Z,2300
2017-01-22T11:25:25.428Z,2256
2017-01-22T11:26:34.111Z,2268
2017-01-22T11:27:42.849Z,2268
2017-01-22T11:28:51.595Z,2344
2017-01-22T11:30:00.284Z,2324
2017-01-22T11:31:08.974Z,2400
2017-01-22T11:32:17.662Z,2412
2017-01-22T11:33:26.397Z,2360
2017-01-22T11:34:35.081Z,2296
2017-01-22T11:35:43.769Z,2136
2017-01-22T11:36:52.453Z,2180
2017-01-22T11:38:01.143Z,2100
2017-01-22T11:39:09.877Z,2028
2017-01-22T11:40:18.590Z,2020
2017-01-22T11:41:27.279Z,2080
2017-01-22T11:42:35.977Z,2124
2017-01-22T11:43:44.668Z,2180
2017-01-22T11:44:53.403Z,2236
2017-01-22T11:46:02.099Z,2352
2017-01-22T11:47:10.781Z,2396
2017-01-22T11:48:19.466Z,2512
2017-01-22T11:49:28.157Z,2576
2017-01-22T11:50:36.891Z,2736
2017-01-22T11:51:45.584Z,2824
2017-01-22T11:52:54.289Z,2700
2017-01-22T11:54:02.976Z,2764
2017-01-22T11:55:11.664Z,2780
2017-01-22T11:56:20.408Z,2680
2017-01-22T11:57:29.094Z,2656
2017-01-22T11:58:37.780Z,2716
2017-01-22T11:59:46.490Z,2888
2017-01-22T12:00:55.179Z,3044
2017-01-22T12:02:03.915Z,3364
2017-01-22T12:03:12.598Z,3524
2017-01-22T12:04:21.284Z,3444
2017-01-22T12:05:29.966Z,3284
2017-01-22T12:06:38.652Z,3144
2017-01-22T12:07:47.392Z,3248
2017-01-22T12:08:56.094Z,3256
2017-01-22T12:10:04.781Z,3408
2017-01-22T12:11:13.466Z,3776
2017-01-22T12:12:22.150Z,4152
2017-01-22T12:13:30.889Z,4184
2017-01-22T12:14:39.569Z,4176
2017-01-22T12:15:48.256Z,4372
2017-01-22T12:16:56.948Z,4396
2017-01-22T12:18:05.644Z,4692
2017-01-22T12:19:14.378Z,4508
2017-01-22T12:20:23.062Z,3776
2017-01-22T12:21:31.747Z,3044
2017-01-22T12:22:40.433Z,2532
2017-01-22T12:23:49.121Z,2300
2017-01-22T12:24:57.858Z,2056
2017-01-22T12:26:06.544Z,1932
2017-01-22T12:27:15.234Z,1848
2017-01-22T12:28:23.920Z,1828
2017-01-22T12:29:32.608Z,1904
2017-01-22T12:30:41.350Z,1988
2017-01-22T12:31:50.036Z,2244
2017-01-22T12:32:58.727Z,2468
2017-01-22T12:34:07.415Z,2652
2017-01-22T12:35:16.104Z,2488
2017-01-22T12:36:24.845Z,2608
2017-01-22T12:37:33.530Z,2612
2017-01-22T12:38:42.214Z,2320
2017-01-22T12:39:51.307Z,2284
2017-01-22T12:41:00.393Z,2116
2017-01-22T12:42:09.128Z,2000
2017-01-22T12:43:17.813Z,1904
2017-01-22T12:44:26.499Z,1772
2017-01-22T12:45:35.214Z,1812
2017-01-22T12:46:43.902Z,1796
2017-01-22T12:47:52.636Z,1696
2017-01-22T12:49:01.346Z,1712
2017-01-22T12:50:10.035Z,1860
2017-01-22T12:51:18.719Z,1816
2017-01-22T12:52:27.406Z,1788
2017-01-22T12:53:36.140Z,1768
2017-01-22T12:54:44.826Z,1776
2017-01-22T12:55:53.507Z,1820
2017-01-22T12:57:02.201Z,1856
2017-01-22T12:58:10.893Z,1932
2017-01-22T12:59:19.630Z,1944
2017-01-22T13:00:28.331Z,1896
2017-01-22T13:01:37.013Z,1868
2017-01-22T13:02:45.699Z,1872
2017-01-22T13:03:54.385Z,1828
2017-01-22T13:05:03.121Z,1728
2017-01-22T13:06:11.808Z,1904
2017-01-22T13:07:20.498Z,1976
2017-01-22T13:08:29.188Z,1788
2017-01-22T13:09:37.872Z,1704
2017-01-22T13:10:46.634Z,1660
2017-01-22T13:11:55.317Z,1552
2017-01-22T13:13:04.006Z,1468
2017-01-22T13:14:12.691Z,1452
2017-01-22T13:15:21.377Z,1444
2017-01-22T13:16:30.116Z,1476
2017-01-22T13:17:38.835Z,1440
2017-01-22T13:18:47.524Z,1436
2017-01-22T13:19:56.208Z,1448
2017-01-22T13:21:04.895Z,1496
2017-01-22T13:22:13.634Z,1540
2017-01-22T13:23:22.321Z,1592
2017-01-22T13:24:31.013Z,1612
2017-01-22T13:25:39.702Z,1640
2017-01-22T13:26:48.389Z,1644
2017-01-22T13:27:57.131Z,1720
2017-01-22T13:29:05.820Z,1704
2017-01-22T13:30:14.507Z,1692
2017-01-22T13:31:23.194Z,1636
2017-01-22T13:32:31.887Z,1536
2017-01-22T13:33:40.624Z,1512
2017-01-22T13:34:49.309Z,1484
2017-01-22T13:35:58.005Z,1460
2017-01-22T13:37:06.689Z,1456
2017-01-22T13:38:15.377Z,1492
2017-01-22T13:39:24.115Z,1552
2017-01-22T13:40:32.798Z,1540
2017-01-22T13:41:41.486Z,1524
2017-01-22T13:42:50.169Z,1544
2017-01-22T13:43:58.855Z,1508
2017-01-22T13:45:07.589Z,1472
2017-01-22T13:46:16.305Z,1480
2017-01-22T13:47:24.986Z,1572
2017-01-22T13:48:33.673Z,1656
2017-01-22T13:49:42.363Z,1708
2017-01-22T13:50:51.111Z,1652
2017-01-22T13:51:59.796Z,1560
2017-01-22T13:53:08.486Z,1496
2017-01-22T13:54:17.174Z,1412
2017-01-22T13:55:25.862Z,1356
2017-01-22T13:56:34.596Z,1340
2017-01-22T13:57:43.281Z,1284
2017-01-22T13:58:51.970Z,1192
2017-01-22T14:00:00.658Z,1136
2017-01-22T14:01:09.375Z,1136
2017-01-22T14:02:18.116Z,1108
2017-01-22T14:03:26.799Z,1068
2017-01-22T14:04:35.484Z,1056
2017-01-22T14:05:44.171Z,1084
2017-01-22T14:06:52.853Z,1148
2017-01-22T14:08:01.589Z,1180
2017-01-22T14:09:10.273Z,1136
2017-01-22T14:10:18.962Z,1064
2017-01-22T14:11:27.650Z,1028
2017-01-22T14:12:36.346Z,960
2017-01-22T14:13:45.084Z,892
2017-01-22T14:14:53.778Z,832
2017-01-22T14:16:02.465Z,788
2017-01-22T14:17:11.150Z,800
2017-01-22T14:18:19.839Z,792
2017-01-22T14:19:28.571Z,828
2017-01-22T14:20:37.257Z,800
2017-01-22T14:21:45.951Z,792
2017-01-22T14:22:54.647Z,800
2017-01-22T14:24:03.331Z,796
2017-01-22T14:25:12.068Z,824
2017-01-22T14:26:20.780Z,832
2017-01-22T14:27:29.469Z,824
2017-01-22T14:28:38.155Z,828
2017-01-22T14:29:46.843Z,832
2017-01-22T14:30:55.571Z,832
2017-01-22T14:32:04.257Z,816
2017-01-22T14:33:12.945Z,792
2017-01-22T14:34:21.639Z,772
2017-01-22T14:35:30.325Z,732
2017-01-22T14:36:39.066Z,700
2017-01-22T14:37:47.753Z,684
2017-01-22T14:38:56.442Z,652
2017-01-22T14:40:05.132Z,588
2017-01-22T14:41:13.817Z,532
2017-01-22T14:42:22.552Z,484
2017-01-22T14:43:31.237Z,440
2017-01-22T14:44:39.925Z,400
2017-01-22T14:45:48.616Z,360
2017-01-22T14:46:57.306Z,336
2017-01-22T14:48:06.048Z,312
2017-01-22T14:49:14.725Z,292
2017-01-22T14:50:23.405Z,276
2017-01-22T14:51:32.094Z,264
2017-01-22T14:52:40.781Z,252
2017-01-22T14:53:49.519Z,240
2017-01-22T14:54:58.219Z,232
2017-01-22T14:56:07.303Z,224
2017-01-22T14:57:15.991Z,208
2017-01-22T14:58:24.675Z,192
2017-01-22T14:59:33.414Z,180
2017-01-22T15:00:42.118Z,176
2017-01-22T15:01:50.807Z,176
2017-01-22T15:02:59.498Z,172
2017-01-22T15:04:08.184Z,160
2017-01-22T15:05:16.924Z,152
2017-01-22T15:06:25.612Z,140
2017-01-22T15:07:34.295Z,132
2017-01-22T15:08:42.983Z,120
2017-01-22T15:09:51.675Z,108
2017-01-22T15:11:00.414Z,96
2017-01-22T15:12:09.101Z,96
2017-01-22T15:13:17.788Z,92
2017-01-22T15:14:26.470Z,84
2017-01-22T15:15:35.179Z,80
2017-01-22T15:16:43.919Z,76
2017-01-22T15:17:52.606Z,68
2017-01-22T15:19:01.295Z,60
2017-01-22T15:20:09.992Z,56
2017-01-22T15:21:18.676Z,48
2017-01-22T15:22:27.407Z,44
2017-01-22T15:23:36.093Z,36
2017-01-22T15:24:44.803Z,32
2017-01-22T15:25:53.493Z,28
2017-01-22T15:27:02.177Z,24
2017-01-22T15:28:10.914Z,20
2017-01-22T15:29:19.607Z,20
2017-01-22T15:30:28.299Z,16
2017-01-22T15:31:36.984Z,16
2017-01-22T15:32:45.672Z,12
2017-01-22T15:33:54.419Z,8
2017-01-22T15:35:03.111Z,8
2017-01-22T15:36:11.805Z,8
2017-01-22T15:37:20.483Z,4
2017-01-22T15:38:29.176Z,4
2017-01-22T15:39:37.909Z,4
2017-01-22T15:40:46.596Z,4
2017-01-22T15:41:55.286Z,4
2017-01-22T15:43:03.970Z,4
2017-01-22T15:44:12.652Z,4
2017-01-22T15:45:21.385Z,4
2017-01-22T15:46:30.074Z,0
2017-01-22T15:47:38.763Z,4
2017-01-22T15:48:47.455Z,0
2017-01-22T15:49:56.145Z,0
2017-01-22T15:51:04.882Z,0
2017-01-22T15:52:13.566Z,4
2017-01-22T15:53:22.253Z,0
2017-01-22T15:54:30.935Z,0
2017-01-22T15:55:39.617Z,0
2017-01-22T15:56:48.357Z,0
2017-01-22T15:57:57.069Z,0
2017-01-22T15:59:05.758Z,0
2017-01-22T16:00:14.441Z,0
2017-01-22T16:01:23.131Z,0
2017-01-22T16:02:31.862Z,0
2017-01-22T16:03:40.556Z,0
2017-01-22T16:04:49.244Z,0
2017-01-22T16:05:57.928Z,0
2017-01-22T16:07:06.613Z,0
2017-01-22T16:08:15.373Z,0
2017-01-22T16:09:24.065Z,0
2017-01-22T16:10:32.755Z,0
2017-01-22T16:11:41.436Z,0